createdAt,value
2019-02-22T00:00:02.028Z,53.96
2019-02-22T00:02:35.323Z,54.03
2019-02-22T00:05:06.668Z,53.95
2019-02-22T00:07:38.245Z,54.33
2019-02-22T00:10:09.895Z,54.36
2019-02-22T00:12:41.576Z,54.23
2019-02-22T00:15:14.227Z,54.07
2019-02-22T00:17:45.879Z,54.50
2019-02-22T00:20:17.422Z,55.53
2019-02-22T00:22:49.186Z,55.58
2019-02-22T00:25:20.949Z,55.31
2019-02-22T00:27:52.709Z,56.27
2019-02-22T00:30:24.463Z,55.69
2019-02-22T00:32:56.221Z,55.38
2019-02-22T00:35:28.073Z,55.20
2019-02-22T00:37:59.633Z,54.99
2019-02-22T00:40:31.489Z,55.14
2019-02-22T00:43:03.792Z,55.82
2019-02-22T00:45:35.213Z,55.68
2019-02-22T00:48:06.866Z,55.50
2019-02-22T00:50:38.416Z,55.42
2019-02-22T00:53:10.075Z,55.34
2019-02-22T00:55:41.629Z,55.83
2019-02-22T00:58:13.284Z,56.05
2019-02-22T01:00:44.948Z,56.43
2019-02-22T01:03:16.597Z,56.09
2019-02-22T01:05:48.454Z,55.81
2019-02-22T01:08:20.726Z,56.79
2019-02-22T01:10:52.484Z,56.05
2019-02-22T01:13:24.140Z,55.92
2019-02-22T01:15:55.798Z,56.51
2019-02-22T01:18:27.457Z,56.45
2019-02-22T01:20:59.220Z,56.28
2019-02-22T01:23:30.672Z,55.72
2019-02-22T01:26:02.530Z,56.63
2019-02-22T01:28:34.190Z,56.58
2019-02-22T01:31:06.350Z,56.96
2019-02-22T01:33:38.004Z,57.19
2019-02-22T01:36:09.356Z,56.88
2019-02-22T01:38:40.909Z,57.01
2019-02-22T01:41:12.727Z,56.89
2019-02-22T01:43:46.315Z,57.61
2019-02-22T01:46:20.172Z,57.33
2019-02-22T01:48:51.830Z,56.21
2019-02-22T01:51:23.494Z,55.98
2019-02-22T01:53:55.062Z,55.33
2019-02-22T01:56:26.696Z,54.94
2019-02-22T01:58:58.353Z,54.63
2019-02-22T02:01:30.013Z,54.74
2019-02-22T02:04:01.671Z,54.60
2019-02-22T02:06:33.321Z,54.76
2019-02-22T02:09:05.808Z,53.90
2019-02-22T02:11:38.988Z,53.25
2019-02-22T02:14:10.541Z,52.56
2019-02-22T02:16:42.193Z,51.68
2019-02-22T02:19:13.856Z,51.21
2019-02-22T02:21:45.528Z,49.94
2019-02-22T02:24:17.167Z,50.86
2019-02-22T02:26:49.029Z,49.39
2019-02-22T02:29:20.579Z,50.03
2019-02-22T02:31:52.353Z,49.63
2019-02-22T02:34:23.686Z,49.89
2019-02-22T02:37:08.459Z,50.16
2019-02-22T02:39:40.120Z,49.72
2019-02-22T02:42:11.760Z,49.96
2019-02-22T02:44:43.311Z,49.69
2019-02-22T02:47:15.074Z,49.46
2019-02-22T02:49:46.633Z,50.00
2019-02-22T02:52:18.286Z,49.91
2019-02-22T02:54:49.940Z,49.36
2019-02-22T02:57:21.485Z,49.34
2019-02-22T02:59:53.146Z,49.11
2019-02-22T03:02:25.624Z,48.82
2019-02-22T03:04:56.985Z,49.42
2019-02-22T03:07:42.862Z,49.05
2019-02-22T03:10:15.142Z,48.43
2019-02-22T03:12:46.899Z,48.05
2019-02-22T03:15:19.759Z,48.69
2019-02-22T03:17:51.431Z,48.49
2019-02-22T03:20:23.090Z,48.75
2019-02-22T03:22:54.639Z,48.95
2019-02-22T03:25:26.499Z,48.37
2019-02-22T03:27:57.850Z,48.98
2019-02-22T03:30:29.425Z,48.66
2019-02-22T03:33:01.068Z,48.45
2019-02-22T03:35:32.721Z,48.41
2019-02-22T03:38:05.948Z,48.27
2019-02-22T03:40:37.356Z,48.45
2019-02-22T03:43:09.212Z,49.58
2019-02-22T03:45:40.468Z,48.08
2019-02-22T03:48:12.233Z,48.49
2019-02-22T03:50:43.879Z,48.25
2019-02-22T03:53:23.015Z,48.30
2019-02-22T03:55:54.786Z,48.09
2019-02-22T03:58:26.517Z,48.37
2019-02-22T04:00:57.852Z,48.00
2019-02-22T04:03:29.127Z,47.79
2019-02-22T04:06:00.383Z,47.86
2019-02-22T04:08:31.841Z,47.78
2019-02-22T04:11:03.480Z,47.92
2019-02-22T04:13:35.128Z,48.72
2019-02-22T04:16:06.696Z,47.82
2019-02-22T04:18:38.350Z,47.56
2019-02-22T04:21:10.210Z,47.92
2019-02-22T04:23:41.860Z,48.36
2019-02-22T04:26:13.414Z,48.50
2019-02-22T04:28:44.959Z,48.03
2019-02-22T04:31:16.619Z,48.41
2019-02-22T04:33:49.094Z,48.73
2019-02-22T04:36:20.615Z,48.08
2019-02-22T04:38:52.306Z,48.30
2019-02-22T04:41:23.959Z,47.71
2019-02-22T04:43:55.748Z,48.40
2019-02-22T04:46:27.275Z,49.50
2019-02-22T04:48:58.924Z,48.88
2019-02-22T04:51:30.684Z,49.21
2019-02-22T04:54:02.338Z,49.39
2019-02-22T04:56:33.997Z,49.18
2019-02-22T04:59:05.656Z,49.22
2019-02-22T05:01:37.331Z,49.41
2019-02-22T05:04:08.965Z,48.95
2019-02-22T05:06:40.517Z,49.28
2019-02-22T05:09:12.275Z,49.35
2019-02-22T05:11:44.035Z,49.85
2019-02-22T05:14:15.592Z,49.64
2019-02-22T05:16:47.350Z,49.78
2019-02-22T05:19:19.218Z,49.13
2019-02-22T05:21:51.169Z,48.74
2019-02-22T05:24:22.418Z,48.57
2019-02-22T05:26:54.293Z,49.82
2019-02-22T05:29:25.932Z,49.30
2019-02-22T05:31:57.700Z,49.55
2019-02-22T05:34:29.347Z,49.78
2019-02-22T05:37:01.002Z,49.88
2019-02-22T05:39:32.767Z,49.92
2019-02-22T05:42:04.531Z,49.69
2019-02-22T05:44:35.880Z,49.47
2019-02-22T05:47:07.637Z,50.07
2019-02-22T05:49:39.494Z,49.71
2019-02-22T05:52:11.330Z,49.81
2019-02-22T05:54:42.700Z,49.24
2019-02-22T05:57:14.563Z,49.33
2019-02-22T05:59:45.907Z,49.25
2019-02-22T06:02:17.574Z,49.19
2019-02-22T06:04:49.224Z,49.07
2019-02-22T06:07:20.990Z,48.88
2019-02-22T06:09:52.639Z,48.78
2019-02-22T06:12:34.142Z,48.85
2019-02-22T06:14:56.794Z,47.99
2019-02-22T06:17:28.326Z,47.21
2019-02-22T06:19:59.850Z,47.33
2019-02-22T06:22:31.529Z,47.53
2019-02-22T06:25:03.296Z,46.65
2019-02-22T06:27:34.952Z,46.51
2019-02-22T06:30:09.511Z,46.11
2019-02-22T06:32:42.253Z,45.91
2019-02-22T06:35:13.901Z,45.79
2019-02-22T06:37:45.554Z,44.68
2019-02-22T06:40:17.227Z,44.37
2019-02-22T06:42:48.876Z,45.42
2019-02-22T06:45:21.657Z,46.04
2019-02-22T06:47:52.900Z,45.34
2019-02-22T06:50:33.381Z,44.54
2019-02-22T06:52:57.869Z,45.54
2019-02-22T06:55:29.373Z,45.18
2019-02-22T06:58:00.872Z,44.29
2019-02-22T07:00:32.144Z,44.62
2019-02-22T07:03:03.625Z,44.23
2019-02-22T07:05:35.056Z,44.80
2019-02-22T07:08:06.377Z,44.71
2019-02-22T07:10:55.721Z,43.90
2019-02-22T07:13:27.684Z,44.22
2019-02-22T07:15:59.227Z,44.56
2019-02-22T07:18:30.905Z,44.74
2019-02-22T07:21:06.234Z,45.18
2019-02-22T07:23:37.614Z,44.79
2019-02-22T07:26:12.212Z,44.90
2019-02-22T07:28:43.772Z,45.55
2019-02-22T07:31:15.420Z,45.50
2019-02-22T07:33:47.114Z,44.17
2019-02-22T07:36:19.737Z,44.31
2019-02-22T07:38:51.090Z,44.07
2019-02-22T07:41:22.765Z,44.65
2019-02-22T07:43:54.186Z,44.59
2019-02-22T07:46:25.500Z,43.71
2019-02-22T07:48:57.949Z,43.83
2019-02-22T07:51:29.203Z,44.33
2019-02-22T07:54:00.666Z,42.12
2019-02-22T07:56:31.921Z,43.14
2019-02-22T07:59:03.350Z,43.59
2019-02-22T08:01:46.531Z,43.32
2019-02-22T08:04:09.111Z,42.36
2019-02-22T08:06:42.555Z,43.10
2019-02-22T08:09:14.053Z,42.86
2019-02-22T08:11:47.480Z,41.41
2019-02-22T08:14:18.120Z,40.87
2019-02-22T08:16:49.217Z,41.54
2019-02-22T08:19:20.815Z,41.91
2019-02-22T08:21:52.141Z,40.70
2019-02-22T08:24:25.853Z,40.70
2019-02-22T08:26:55.878Z,41.80
2019-02-22T08:29:26.997Z,42.28
2019-02-22T08:31:58.749Z,41.05
2019-02-22T08:34:30.520Z,40.28
2019-02-22T08:37:02.058Z,40.97
2019-02-22T08:39:35.462Z,41.17
2019-02-22T08:42:07.215Z,41.00
2019-02-22T08:44:38.786Z,41.53
2019-02-22T08:47:11.040Z,40.70
2019-02-22T08:49:42.592Z,40.71
2019-02-22T08:52:15.377Z,40.65
2019-02-22T08:54:47.543Z,40.88
2019-02-22T08:57:19.004Z,40.90
2019-02-22T08:59:50.774Z,40.67
2019-02-22T09:02:22.434Z,40.62
2019-02-22T09:04:55.617Z,40.62
2019-02-22T09:07:27.000Z,41.20
2019-02-22T09:09:58.781Z,41.28
2019-02-22T09:12:30.441Z,42.06
2019-02-22T09:15:02.230Z,42.18
2019-02-22T09:17:33.893Z,40.97
2019-02-22T09:20:10.760Z,40.75
2019-02-22T09:22:42.422Z,40.83
2019-02-22T09:25:14.072Z,40.98
2019-02-22T09:27:45.933Z,41.15
2019-02-22T09:30:17.485Z,40.74
2019-02-22T09:32:49.031Z,40.57
2019-02-22T09:35:20.591Z,41.51
2019-02-22T09:37:52.043Z,40.88
2019-02-22T09:40:23.804Z,40.76
2019-02-22T09:42:55.442Z,40.63
2019-02-22T09:45:26.806Z,40.68
2019-02-22T09:47:58.579Z,41.08
2019-02-22T09:50:30.011Z,40.32
2019-02-22T09:53:01.979Z,40.25
2019-02-22T09:55:33.636Z,40.20
2019-02-22T09:58:05.408Z,40.51
2019-02-22T10:00:37.231Z,40.22
2019-02-22T10:03:11.650Z,39.97
2019-02-22T10:05:43.180Z,39.59
2019-02-22T10:08:15.209Z,39.91
2019-02-22T10:10:47.109Z,39.97
2019-02-22T10:13:20.675Z,39.64
2019-02-22T10:15:52.417Z,39.82
2019-02-22T10:18:23.986Z,39.96
2019-02-22T10:20:58.518Z,40.00
2019-02-22T10:23:31.050Z,39.25
2019-02-22T10:26:02.361Z,39.02
2019-02-22T10:28:33.876Z,39.43
2019-02-22T10:31:05.420Z,39.71
2019-02-22T10:33:37.143Z,39.50
2019-02-22T10:36:09.578Z,40.11
2019-02-22T10:38:41.411Z,39.90
2019-02-22T10:41:13.068Z,39.41
2019-02-22T10:43:44.963Z,39.14
2019-02-22T10:46:16.585Z,39.87
2019-02-22T10:48:48.381Z,40.64
2019-02-22T10:51:19.694Z,39.72
2019-02-22T10:53:51.084Z,39.30
2019-02-22T10:56:22.528Z,40.37
2019-02-22T10:58:54.243Z,40.03
2019-02-22T11:01:25.973Z,39.52
2019-02-22T11:03:58.980Z,39.95
2019-02-22T11:06:31.391Z,40.83
2019-02-22T11:09:04.870Z,39.99
2019-02-22T11:11:38.978Z,40.62
2019-02-22T11:14:10.536Z,40.43
2019-02-22T11:16:41.888Z,39.95
2019-02-22T11:19:13.494Z,40.10
2019-02-22T11:21:44.694Z,40.20
2019-02-22T11:24:15.973Z,41.04
2019-02-22T11:26:47.280Z,40.80
2019-02-22T11:29:18.981Z,41.00
2019-02-22T11:31:51.106Z,41.59
2019-02-22T11:34:23.121Z,40.67
2019-02-22T11:36:54.721Z,41.84
2019-02-22T11:39:27.856Z,42.13
2019-02-22T11:41:59.432Z,41.44
2019-02-22T11:44:39.872Z,41.80
2019-02-22T11:47:03.148Z,42.20
2019-02-22T11:49:34.403Z,42.23
2019-02-22T11:52:06.035Z,42.01
2019-02-22T11:54:37.550Z,42.09
2019-02-22T11:57:11.273Z,42.50
2019-02-22T11:59:42.559Z,41.98
2019-02-22T12:02:14.187Z,42.79
2019-02-22T12:04:45.926Z,42.30
2019-02-22T12:07:17.217Z,42.97
2019-02-22T12:09:48.766Z,43.21
2019-02-22T12:12:21.554Z,43.52
2019-02-22T12:14:53.140Z,43.35
2019-02-22T12:17:24.829Z,43.15
2019-02-22T12:19:56.266Z,43.59
2019-02-22T12:22:28.861Z,43.51
2019-02-22T12:25:00.267Z,43.24
2019-02-22T12:27:31.597Z,43.07
2019-02-22T12:30:05.227Z,43.60
2019-02-22T12:32:39.451Z,42.65
2019-02-22T12:35:10.028Z,43.12
2019-02-22T12:37:41.326Z,43.01
2019-02-22T12:40:13.248Z,43.54
2019-02-22T12:42:44.500Z,43.90
2019-02-22T12:45:16.153Z,43.20
2019-02-22T12:47:47.621Z,44.45
2019-02-22T12:50:19.093Z,44.76
2019-02-22T12:52:50.416Z,44.42
2019-02-22T12:55:21.788Z,45.06
2019-02-22T12:57:53.051Z,45.28
2019-02-22T13:00:25.391Z,45.61
2019-02-22T13:03:02.042Z,45.38
2019-02-22T13:05:30.868Z,45.33
2019-02-22T13:08:02.263Z,45.39
2019-02-22T13:10:33.538Z,46.14
2019-02-22T13:13:04.934Z,45.43
2019-02-22T13:15:36.237Z,45.90
2019-02-22T13:18:07.630Z,46.29
2019-02-22T13:20:39.034Z,46.88
2019-02-22T13:23:12.357Z,47.14
2019-02-22T13:25:43.794Z,46.64
2019-02-22T13:28:15.734Z,46.92
2019-02-22T13:30:46.956Z,47.25
2019-02-22T13:33:19.428Z,48.13
2019-02-22T13:35:50.891Z,48.49
2019-02-22T13:38:22.234Z,48.35
2019-02-22T13:40:53.657Z,49.77
2019-02-22T13:43:24.933Z,49.11
2019-02-22T13:45:56.428Z,49.17
2019-02-22T13:48:27.863Z,50.16
2019-02-22T13:51:01.227Z,50.54
2019-02-22T13:53:32.613Z,51.25
2019-02-22T13:56:05.383Z,52.19
2019-02-22T13:58:38.899Z,53.21
2019-02-22T14:01:09.599Z,53.38
2019-02-22T14:03:40.681Z,53.61
2019-02-22T14:06:12.033Z,54.81
2019-02-22T14:08:43.329Z,55.54
2019-02-22T14:11:14.680Z,56.12
2019-02-22T14:13:51.350Z,55.54
2019-02-22T14:16:23.074Z,55.18
2019-02-22T14:18:56.051Z,55.80
2019-02-22T14:21:29.105Z,55.54
2019-02-22T14:24:00.439Z,55.72
2019-02-22T14:26:31.849Z,55.21
2019-02-22T14:29:03.163Z,54.80
2019-02-22T14:31:34.460Z,53.17
2019-02-22T14:34:05.966Z,53.43
2019-02-22T14:36:41.561Z,52.55
2019-02-22T14:39:13.316Z,53.58
2019-02-22T14:41:47.143Z,52.99
2019-02-22T14:44:18.589Z,52.27
2019-02-22T14:46:50.122Z,50.80
2019-02-22T14:49:21.467Z,50.71
2019-02-22T14:51:53.310Z,50.62
2019-02-22T14:54:24.641Z,50.32
2019-02-22T14:56:57.761Z,49.82
2019-02-22T14:59:29.272Z,49.20
2019-02-22T15:02:00.633Z,48.53
2019-02-22T15:04:32.041Z,48.13
2019-02-22T15:07:03.365Z,48.53
2019-02-22T15:09:35.762Z,47.49
2019-02-22T15:12:11.841Z,47.09
2019-02-22T15:14:45.825Z,47.03
2019-02-22T15:17:22.147Z,46.29
2019-02-22T15:19:55.026Z,45.90
2019-02-22T15:22:26.334Z,45.80
2019-02-22T15:24:57.926Z,45.17
2019-02-22T15:27:29.240Z,46.25
2019-02-22T15:30:02.531Z,46.68
2019-02-22T15:32:34.019Z,45.90
2019-02-22T15:35:11.234Z,45.98
2019-02-22T15:37:43.496Z,46.12
2019-02-22T15:40:17.610Z,46.01
2019-02-22T15:42:51.329Z,45.88
2019-02-22T15:45:22.559Z,45.61
2019-02-22T15:47:56.568Z,46.16
2019-02-22T15:50:27.694Z,46.14
2019-02-22T15:53:00.075Z,46.78
2019-02-22T15:55:33.033Z,47.96
2019-02-22T15:58:04.420Z,47.99
2019-02-22T16:00:37.327Z,47.81
2019-02-22T16:03:08.049Z,49.14
2019-02-22T16:05:40.806Z,48.66
2019-02-22T16:08:13.427Z,47.98
2019-02-22T16:10:45.047Z,48.25
2019-02-22T16:13:16.678Z,48.28
2019-02-22T16:15:48.385Z,48.67
2019-02-22T16:18:22.295Z,49.07
2019-02-22T16:20:53.942Z,50.16
2019-02-22T16:23:25.532Z,50.32
2019-02-22T16:25:58.513Z,50.70
2019-02-22T16:28:30.464Z,50.47
2019-02-22T16:31:02.056Z,50.05
2019-02-22T16:33:33.563Z,50.15
2019-02-22T16:36:05.229Z,49.74
2019-02-22T16:38:36.729Z,49.51
2019-02-22T16:41:08.628Z,49.88
2019-02-22T16:43:39.924Z,49.80
2019-02-22T16:46:12.147Z,49.89
2019-02-22T16:48:44.006Z,50.39
2019-02-22T16:51:15.765Z,49.48
2019-02-22T16:53:48.121Z,48.86
2019-02-22T16:56:19.493Z,49.02
2019-02-22T16:58:51.477Z,49.13
2019-02-22T17:01:22.652Z,49.23
2019-02-22T17:03:56.090Z,48.73
2019-02-22T17:06:27.541Z,48.49
2019-02-22T17:08:59.737Z,48.57
2019-02-22T17:11:30.858Z,49.45
2019-02-22T17:14:02.709Z,49.71
2019-02-22T17:16:45.210Z,51.00
2019-02-22T17:19:07.462Z,51.67
2019-02-22T17:21:40.267Z,51.28
2019-02-22T17:24:11.844Z,50.80
2019-02-22T17:26:43.317Z,50.35
2019-02-22T17:29:15.003Z,50.00
2019-02-22T17:31:48.202Z,50.15
2019-02-22T17:34:19.751Z,50.04
2019-02-22T17:36:51.415Z,50.42
2019-02-22T17:39:23.066Z,50.02
2019-02-22T17:41:54.950Z,49.97
2019-02-22T17:44:26.580Z,49.45
2019-02-22T17:46:58.236Z,49.60
2019-02-22T17:49:29.998Z,49.06
2019-02-22T17:52:01.646Z,49.20
2019-02-22T17:54:33.403Z,48.76
2019-02-22T17:57:05.062Z,47.94
2019-02-22T17:59:36.826Z,47.85
2019-02-22T18:02:09.511Z,46.94
2019-02-22T18:04:41.368Z,46.94
2019-02-22T18:07:12.913Z,46.29
2019-02-22T18:09:44.565Z,46.33
2019-02-22T18:12:17.154Z,46.91
2019-02-22T18:14:48.909Z,46.83
2019-02-22T18:17:20.570Z,47.82
2019-02-22T18:19:52.425Z,47.44
2019-02-22T18:22:26.098Z,48.05
2019-02-22T18:24:57.185Z,47.86
2019-02-22T18:27:29.341Z,47.62
2019-02-22T18:30:00.583Z,48.36
2019-02-22T18:32:32.439Z,48.01
2019-02-22T18:35:04.813Z,48.39
2019-02-22T18:37:36.374Z,48.84
2019-02-22T18:40:11.305Z,48.61
2019-02-22T18:42:43.124Z,48.98
2019-02-22T18:45:14.446Z,50.10
2019-02-22T18:47:45.716Z,50.12
2019-02-22T18:50:22.612Z,50.77
2019-02-22T18:52:53.987Z,51.63
2019-02-22T18:55:25.601Z,51.61
2019-02-22T18:57:57.196Z,51.38
2019-02-22T19:00:28.952Z,51.05
2019-02-22T19:03:00.501Z,51.05
2019-02-22T19:05:32.162Z,50.44
2019-02-22T19:08:03.716Z,49.83
2019-02-22T19:10:35.474Z,48.50
2019-02-22T19:13:07.252Z,48.48
2019-02-22T19:15:39.408Z,48.19
2019-02-22T19:18:10.867Z,46.21
2019-02-22T19:20:42.474Z,45.01
2019-02-22T19:23:13.792Z,45.02
2019-02-22T19:25:45.012Z,44.87
2019-02-22T19:28:16.362Z,45.00
2019-02-22T19:30:47.805Z,43.91
2019-02-22T19:33:19.360Z,44.28
2019-02-22T19:35:51.329Z,45.02
2019-02-22T19:38:23.093Z,44.52
2019-02-22T19:40:54.749Z,43.96
2019-02-22T19:43:26.597Z,44.43
2019-02-22T19:45:58.128Z,45.36
2019-02-22T19:48:29.474Z,45.11
2019-02-22T19:51:02.528Z,45.02
2019-02-22T19:53:33.752Z,44.96
2019-02-22T19:56:05.723Z,45.03
2019-02-22T19:58:38.162Z,44.96
2019-02-22T20:01:11.568Z,44.76
2019-02-22T20:03:42.587Z,45.20
2019-02-22T20:06:13.872Z,45.51
2019-02-22T20:08:46.760Z,46.18
2019-02-22T20:11:17.316Z,46.20
2019-02-22T20:13:48.512Z,46.52
2019-02-22T20:16:19.935Z,47.21
2019-02-22T20:18:51.229Z,47.65
2019-02-22T20:21:22.500Z,48.18
2019-02-22T20:23:53.739Z,48.19
2019-02-22T20:26:24.932Z,48.02
2019-02-22T20:28:56.134Z,48.63
2019-02-22T20:31:27.475Z,48.67
2019-02-22T20:33:58.761Z,49.28
2019-02-22T20:36:30.063Z,49.95
2019-02-22T20:39:01.334Z,48.99
2019-02-22T20:41:33.405Z,49.51
2019-02-22T20:44:04.516Z,49.98
2019-02-22T20:46:35.776Z,50.17
2019-02-22T20:49:07.224Z,50.33
2019-02-22T20:51:38.538Z,50.46
2019-02-22T20:54:11.386Z,51.43
2019-02-22T20:56:42.689Z,51.55
2019-02-22T20:59:13.953Z,51.23
2019-02-22T21:01:45.378Z,51.32
2019-02-22T21:04:16.660Z,52.10
2019-02-22T21:06:48.230Z,51.63
2019-02-22T21:09:19.585Z,52.14
2019-02-22T21:11:50.919Z,52.10
2019-02-22T21:14:22.182Z,51.71
2019-02-22T21:16:53.526Z,51.61
2019-02-22T21:19:24.944Z,52.34
2019-02-22T21:21:56.158Z,53.15
2019-02-22T21:24:27.506Z,52.88
2019-02-22T21:26:58.793Z,53.23
2019-02-22T21:29:30.129Z,52.80
2019-02-22T21:32:01.620Z,53.04
2019-02-22T21:34:33.093Z,54.18
2019-02-22T21:37:04.457Z,53.95
2019-02-22T21:39:35.850Z,54.54
2019-02-22T21:42:07.085Z,54.58
2019-02-22T21:44:38.367Z,54.98
2019-02-22T21:47:09.652Z,55.00
2019-02-22T21:49:40.926Z,54.58
2019-02-22T21:52:12.368Z,54.64
2019-02-22T21:54:43.595Z,54.79
2019-02-22T21:57:14.935Z,54.71
2019-02-22T21:59:46.153Z,55.50
2019-02-22T22:02:17.519Z,54.92
2019-02-22T22:04:48.798Z,54.76
2019-02-22T22:07:20.131Z,54.98
2019-02-22T22:09:51.536Z,55.17
2019-02-22T22:12:22.890Z,54.94
2019-02-22T22:14:54.103Z,55.30
2019-02-22T22:17:25.448Z,55.09
2019-02-22T22:19:56.770Z,55.63
2019-02-22T22:22:28.082Z,55.30
2019-02-22T22:24:59.304Z,55.76
2019-02-22T22:27:30.591Z,56.24
2019-02-22T22:30:02.007Z,55.78
2019-02-22T22:32:33.799Z,55.92
2019-02-22T22:35:07.804Z,56.11
2019-02-22T22:37:39.346Z,56.32
2019-02-22T22:40:13.232Z,56.71
2019-02-22T22:42:44.558Z,57.25
2019-02-22T22:45:17.083Z,57.52
2019-02-22T22:47:48.426Z,57.15
2019-02-22T22:50:19.718Z,56.89
2019-02-22T22:52:51.100Z,56.68
2019-02-22T22:55:22.495Z,57.37
2019-02-22T22:57:54.112Z,57.29
2019-02-22T23:00:51.123Z,57.73
2019-02-22T23:03:23.974Z,58.29
2019-02-22T23:05:55.620Z,58.29
2019-02-22T23:08:27.034Z,57.78
2019-02-22T23:10:58.299Z,58.64
2019-02-22T23:13:29.593Z,58.72
2019-02-22T23:16:00.883Z,58.95
2019-02-22T23:18:32.198Z,58.95
2019-02-22T23:21:03.469Z,59.34
2019-02-22T23:23:34.848Z,59.34
2019-02-22T23:26:06.226Z,59.15
2019-02-22T23:28:37.534Z,59.57
2019-02-22T23:31:08.801Z,59.61
2019-02-22T23:33:40.128Z,59.33
2019-02-22T23:36:11.616Z,59.65
2019-02-22T23:38:42.969Z,59.98
2019-02-22T23:41:14.273Z,60.10
2019-02-22T23:43:45.596Z,60.58
2019-02-22T23:46:16.960Z,60.65
2019-02-22T23:48:48.325Z,60.63
2019-02-22T23:51:19.607Z,60.92
2019-02-22T23:53:51.018Z,61.06
2019-02-22T23:56:22.379Z,60.72
2019-02-22T23:58:53.623Z,61.09
